Terminal Aerodrome Forecast
Issued by NWS

Home | Current Version | Previous Version | Text Only | Print | Product List | Glossary On
Versions: 1 2 3 4 5 6 7 8 9 10 11 12 13 14 15 16 17 18
000
FTUS45 KBOI 172337
TAFMYL
TAF
KMYL 172337Z 1800/1824 13004KT P6SM BKN050 OVC100
     FM181400 16009KT 1SM BR BCFG OVC003
     FM181800 16019KT P6SM VCFG BKN015
     FM182100 21008KT 4SM -RASN BKN015=

USA.gov is the U.S. government's official web portal to all federal, state and local government web resources and services.